createdAt,value
2023-12-29T00:02:09.031Z,38.00
2023-12-29T00:04:37.081Z,38.40
2023-12-29T00:07:06.439Z,37.97
2023-12-29T00:09:39.902Z,37.50
2023-12-29T00:12:08.105Z,36.20
2023-12-29T00:14:36.209Z,34.20
2023-12-29T00:17:05.083Z,35.07
2023-12-29T00:19:33.326Z,35.13
2023-12-29T00:22:04.503Z,35.60
2023-12-29T00:24:34.411Z,34.70
2023-12-29T00:27:03.264Z,35.83
2023-12-29T00:29:34.864Z,36.17
2023-12-29T00:32:04.755Z,35.63
2023-12-29T00:34:33.709Z,34.77
2023-12-29T00:37:02.643Z,35.80
2023-12-29T00:39:32.678Z,36.33
2023-12-29T00:42:02.169Z,35.50
2023-12-29T00:44:30.124Z,36.93
2023-12-29T00:46:58.624Z,36.20
2023-12-29T00:49:26.736Z,35.60
2023-12-29T00:51:55.508Z,35.40
2023-12-29T00:54:24.874Z,34.27
2023-12-29T00:56:53.883Z,35.77
2023-12-29T00:59:24.322Z,36.07
2023-12-29T01:01:52.329Z,34.77
2023-12-29T01:04:20.552Z,35.50
2023-12-29T01:06:48.832Z,35.13
2023-12-29T01:09:17.295Z,36.40
2023-12-29T01:11:45.208Z,36.70
2023-12-29T01:14:13.148Z,37.60
2023-12-29T01:16:43.995Z,36.87
2023-12-29T01:19:12.261Z,36.17
2023-12-29T01:21:40.648Z,36.60
2023-12-29T01:24:08.924Z,36.43
2023-12-29T01:26:38.902Z,38.13
2023-12-29T01:29:06.861Z,36.43
2023-12-29T01:31:34.916Z,35.80
2023-12-29T01:34:04.291Z,36.73
2023-12-29T01:36:32.268Z,37.10
2023-12-29T01:39:00.284Z,38.63
2023-12-29T01:41:28.340Z,37.60
2023-12-29T01:44:15.120Z,39.33
2023-12-29T01:46:43.264Z,39.30
2023-12-29T01:49:12.780Z,38.77
2023-12-29T01:51:40.714Z,37.60
2023-12-29T01:54:08.608Z,38.83
2023-12-29T01:56:37.350Z,38.63
2023-12-29T01:59:11.060Z,40.03
2023-12-29T02:01:43.557Z,39.63
2023-12-29T02:04:14.584Z,39.80
2023-12-29T02:06:43.212Z,41.77
2023-12-29T02:09:11.233Z,40.70
2023-12-29T02:11:39.157Z,41.10
2023-12-29T02:14:07.352Z,40.30
2023-12-29T02:16:38.109Z,39.43
2023-12-29T02:19:11.030Z,39.80
2023-12-29T02:21:40.483Z,37.87
2023-12-29T02:24:08.426Z,37.93
2023-12-29T02:26:38.887Z,38.97
2023-12-29T02:29:09.178Z,39.80
2023-12-29T02:31:37.532Z,39.23
2023-12-29T02:34:07.642Z,39.80
2023-12-29T02:36:43.786Z,39.67
2023-12-29T02:39:12.375Z,38.93
2023-12-29T02:41:41.656Z,41.10
2023-12-29T02:44:09.716Z,39.93
2023-12-29T02:46:37.628Z,41.37
2023-12-29T02:49:05.754Z,41.03
2023-12-29T02:51:33.696Z,41.83
2023-12-29T02:54:03.026Z,42.07
2023-12-29T02:56:30.976Z,43.20
2023-12-29T02:59:00.299Z,43.33
2023-12-29T03:01:30.263Z,45.20
2023-12-29T03:03:58.223Z,43.47
2023-12-29T03:06:26.222Z,43.93
2023-12-29T03:08:54.144Z,45.10
2023-12-29T03:11:22.919Z,47.07
2023-12-29T03:13:50.760Z,47.53
2023-12-29T03:16:20.063Z,47.03
2023-12-29T03:18:49.064Z,45.87
2023-12-29T03:21:17.125Z,45.60
2023-12-29T03:23:45.055Z,45.07
2023-12-29T03:26:13.426Z,47.17
2023-12-29T03:28:41.399Z,46.97
2023-12-29T03:31:09.331Z,47.03
2023-12-29T03:33:38.768Z,48.03
2023-12-29T03:36:06.935Z,48.93
2023-12-29T03:38:37.511Z,48.27
2023-12-29T03:41:05.708Z,48.47
2023-12-29T03:43:33.685Z,49.17
2023-12-29T03:46:01.822Z,48.93
2023-12-29T03:48:29.964Z,49.33
2023-12-29T03:50:59.385Z,48.47
2023-12-29T03:53:27.306Z,48.47
2023-12-29T03:55:55.301Z,49.03
2023-12-29T03:58:23.265Z,48.17
2023-12-29T04:00:51.361Z,48.17
2023-12-29T04:03:19.326Z,48.97
2023-12-29T04:05:47.300Z,49.03
2023-12-29T04:08:16.698Z,50.57
2023-12-29T04:10:44.637Z,52.07
2023-12-29T04:13:13.171Z,49.93
2023-12-29T04:15:41.551Z,53.43
2023-12-29T04:18:09.888Z,51.17
2023-12-29T04:20:37.996Z,50.10
2023-12-29T04:23:07.982Z,46.30
2023-12-29T04:25:37.545Z,46.67
2023-12-29T04:28:07.095Z,45.73
2023-12-29T04:30:35.479Z,51.27
2023-12-29T04:33:03.561Z,49.17
2023-12-29T04:35:32.686Z,48.83
2023-12-29T04:38:00.951Z,50.10
2023-12-29T04:40:29.720Z,50.70
2023-12-29T04:42:59.172Z,52.43
2023-12-29T04:45:27.228Z,52.00
2023-12-29T04:47:55.241Z,51.83
2023-12-29T04:50:23.157Z,50.17
2023-12-29T04:52:51.046Z,49.77
2023-12-29T04:55:19.201Z,49.63
2023-12-29T04:57:47.146Z,50.83
2023-12-29T05:00:16.972Z,49.53
2023-12-29T05:02:44.893Z,51.73
2023-12-29T05:05:12.899Z,51.50
2023-12-29T05:07:40.847Z,51.47
2023-12-29T05:10:09.432Z,51.43
2023-12-29T05:12:37.488Z,50.07
2023-12-29T05:15:06.038Z,48.93
2023-12-29T05:17:35.328Z,48.77
2023-12-29T05:20:03.440Z,46.23
2023-12-29T05:22:31.475Z,46.00
2023-12-29T05:25:01.313Z,44.37
2023-12-29T05:27:29.361Z,43.47
2023-12-29T05:29:57.301Z,42.03
2023-12-29T05:32:25.397Z,41.77
2023-12-29T05:34:54.871Z,39.60
2023-12-29T05:37:22.874Z,39.50
2023-12-29T05:39:50.830Z,38.03
2023-12-29T05:42:18.769Z,36.03
2023-12-29T05:44:46.748Z,35.23
2023-12-29T05:47:14.710Z,34.63
2023-12-29T05:49:42.648Z,36.00
2023-12-29T05:52:12.089Z,35.90
2023-12-29T05:54:40.151Z,38.27
2023-12-29T05:57:08.112Z,36.07
2023-12-29T05:59:36.127Z,35.77
2023-12-29T06:02:04.473Z,36.17
2023-12-29T06:04:32.553Z,34.80
2023-12-29T06:07:00.551Z,33.87
2023-12-29T06:09:30.112Z,32.70
2023-12-29T06:11:58.097Z,30.90
2023-12-29T06:14:26.034Z,31.10
2023-12-29T06:16:54.810Z,30.23
2023-12-29T06:19:22.879Z,27.87
2023-12-29T06:21:50.838Z,30.03
2023-12-29T06:24:19.592Z,28.97
2023-12-29T06:26:49.615Z,28.67
2023-12-29T06:29:17.639Z,27.13
2023-12-29T06:31:45.681Z,25.47
2023-12-29T06:34:13.973Z,27.53
2023-12-29T06:36:42.312Z,25.70
2023-12-29T06:39:10.322Z,28.97
2023-12-29T06:41:38.309Z,30.20
2023-12-29T06:44:07.721Z,28.07
2023-12-29T06:46:36.314Z,26.40
2023-12-29T06:49:04.371Z,27.90
2023-12-29T06:51:32.436Z,26.47
2023-12-29T06:54:01.107Z,24.17
2023-12-29T06:56:29.368Z,24.40
2023-12-29T06:58:57.614Z,24.67
2023-12-29T07:01:27.245Z,24.93
2023-12-29T07:03:55.431Z,24.80
2023-12-29T07:06:23.991Z,23.23
2023-12-29T07:08:51.975Z,22.33
2023-12-29T07:11:20.017Z,22.10
2023-12-29T07:13:47.894Z,20.63
2023-12-29T07:16:16.008Z,20.47
2023-12-29T07:18:45.642Z,19.23
2023-12-29T07:21:15.998Z,19.50
2023-12-29T07:23:45.413Z,19.07
2023-12-29T07:26:14.174Z,18.63
2023-12-29T07:28:42.092Z,18.60
2023-12-29T07:31:10.281Z,17.10
2023-12-29T07:33:38.634Z,17.03
2023-12-29T07:36:08.591Z,16.33
2023-12-29T07:38:36.546Z,17.27
2023-12-29T07:41:04.676Z,17.13
2023-12-29T07:43:33.312Z,15.97
2023-12-29T07:46:01.651Z,15.90
2023-12-29T07:48:29.822Z,15.53
2023-12-29T07:51:00.617Z,14.63
2023-12-29T07:53:29.935Z,14.63
2023-12-29T07:55:57.738Z,14.20
2023-12-29T07:58:25.697Z,13.70
2023-12-29T08:00:53.700Z,13.00
2023-12-29T08:03:21.858Z,12.80
2023-12-29T08:05:49.717Z,12.43
2023-12-29T08:08:18.468Z,12.00
2023-12-29T08:10:47.620Z,12.00
2023-12-29T08:13:16.101Z,11.53
2023-12-29T08:15:44.407Z,11.33
2023-12-29T08:18:14.945Z,10.80
2023-12-29T08:20:43.125Z,11.00
2023-12-29T08:23:11.587Z,11.37
2023-12-29T08:25:39.527Z,11.50
2023-12-29T08:28:08.961Z,11.10
2023-12-29T08:30:37.332Z,10.70
2023-12-29T08:33:05.368Z,11.10
2023-12-29T08:35:33.311Z,10.00
2023-12-29T08:38:01.577Z,10.20
2023-12-29T08:40:30.773Z,9.63
2023-12-29T08:42:58.995Z,9.77
2023-12-29T08:45:28.225Z,9.47
2023-12-29T08:47:56.496Z,9.67
2023-12-29T08:50:24.512Z,8.40
2023-12-29T08:52:52.510Z,8.77
2023-12-29T08:55:20.423Z,7.90
2023-12-29T08:57:48.354Z,7.77
2023-12-29T09:00:16.633Z,7.70
2023-12-29T09:02:45.996Z,7.93
2023-12-29T09:05:15.363Z,6.90
2023-12-29T09:07:44.048Z,7.20
2023-12-29T09:10:14.207Z,6.70
2023-12-29T09:12:42.419Z,6.80
2023-12-29T09:15:10.735Z,7.17
2023-12-29T09:17:38.726Z,5.80
2023-12-29T09:20:11.113Z,5.37
2023-12-29T09:22:40.220Z,5.50
2023-12-29T09:25:08.380Z,4.93
2023-12-29T09:27:36.421Z,5.00
2023-12-29T09:30:05.347Z,4.47
2023-12-29T09:32:33.372Z,4.47
2023-12-29T09:35:01.516Z,4.07
2023-12-29T09:37:30.802Z,3.93
2023-12-29T09:39:58.841Z,3.50
2023-12-29T09:42:29.360Z,3.20
2023-12-29T09:44:57.249Z,3.33
2023-12-29T09:47:25.722Z,3.10
2023-12-29T09:49:55.033Z,3.17
2023-12-29T09:52:24.167Z,3.10
2023-12-29T09:54:54.674Z,3.40
2023-12-29T09:57:22.728Z,3.20
2023-12-29T09:59:53.130Z,3.20
2023-12-29T10:02:22.148Z,3.00
2023-12-29T10:04:50.285Z,2.83
2023-12-29T10:07:22.746Z,2.80
2023-12-29T10:09:52.902Z,2.90
2023-12-29T10:12:22.837Z,2.90
2023-12-29T10:14:52.734Z,2.93
2023-12-29T10:17:23.880Z,2.73
2023-12-29T10:19:56.886Z,2.60
2023-12-29T10:22:28.447Z,3.00
2023-12-29T10:24:56.585Z,2.80
2023-12-29T10:27:25.881Z,3.13
2023-12-29T10:29:54.409Z,2.60
2023-12-29T10:32:22.528Z,2.73
2023-12-29T10:34:50.537Z,2.90
2023-12-29T10:37:24.667Z,2.97
2023-12-29T10:39:57.508Z,3.20
2023-12-29T10:42:26.956Z,2.93
2023-12-29T10:45:06.633Z,2.97
2023-12-29T10:47:34.929Z,3.20
2023-12-29T10:50:04.981Z,3.20
2023-12-29T10:52:33.804Z,2.80
2023-12-29T10:55:10.218Z,2.70
2023-12-29T10:57:40.031Z,2.53
2023-12-29T11:00:09.201Z,2.47
2023-12-29T11:02:37.444Z,2.90
2023-12-29T11:05:06.266Z,2.90
2023-12-29T11:07:35.048Z,2.73
2023-12-29T11:10:04.361Z,3.00
2023-12-29T11:12:33.429Z,3.30
2023-12-29T11:15:03.520Z,2.70
2023-12-29T11:17:32.293Z,2.60
2023-12-29T11:20:01.093Z,2.33
2023-12-29T11:22:30.453Z,2.60
2023-12-29T11:25:01.550Z,2.77
2023-12-29T11:27:31.296Z,2.80
2023-12-29T11:29:59.962Z,2.80
2023-12-29T11:32:33.057Z,2.80
2023-12-29T11:35:05.135Z,2.70
2023-12-29T11:37:39.949Z,3.10
2023-12-29T11:40:14.324Z,3.17
2023-12-29T11:42:42.928Z,3.37
2023-12-29T11:45:27.265Z,3.17
2023-12-29T11:47:58.286Z,3.57
2023-12-29T11:50:33.173Z,3.30
2023-12-29T11:53:01.572Z,3.10
2023-12-29T11:55:34.683Z,3.03
2023-12-29T11:58:02.919Z,3.00
2023-12-29T12:00:43.894Z,3.10
2023-12-29T12:03:21.779Z,3.10
2023-12-29T12:05:50.586Z,3.00
2023-12-29T12:08:33.652Z,3.20
2023-12-29T12:11:21.595Z,3.03
2023-12-29T12:13:49.802Z,3.10
2023-12-29T12:16:36.301Z,3.10
2023-12-29T12:19:06.784Z,2.93
2023-12-29T12:21:35.056Z,3.30
2023-12-29T12:24:04.636Z,3.10
2023-12-29T12:26:33.066Z,3.10
2023-12-29T12:29:01.223Z,3.37
2023-12-29T12:31:29.472Z,3.30
2023-12-29T12:33:57.576Z,3.80
2023-12-29T12:36:27.916Z,3.57
2023-12-29T12:38:56.201Z,3.17
2023-12-29T12:41:24.788Z,3.13
2023-12-29T12:43:55.163Z,2.70
2023-12-29T12:46:25.429Z,2.60
2023-12-29T12:48:53.716Z,2.90
2023-12-29T12:51:22.384Z,2.80
2023-12-29T12:53:52.360Z,2.97
2023-12-29T12:56:20.581Z,2.40
2023-12-29T12:58:48.705Z,2.43
2023-12-29T13:01:17.073Z,2.73
2023-12-29T13:03:46.624Z,2.70
2023-12-29T13:06:15.019Z,2.80
2023-12-29T13:08:44.107Z,2.73
2023-12-29T13:11:14.839Z,2.97
2023-12-29T13:13:44.845Z,2.87
2023-12-29T13:16:14.424Z,2.80
2023-12-29T13:18:42.494Z,2.73
2023-12-29T13:21:10.858Z,2.55
2023-12-29T13:23:38.817Z,3.00
2023-12-29T13:26:09.152Z,2.73
2023-12-29T13:28:40.215Z,3.00
2023-12-29T13:31:09.878Z,3.30
2023-12-29T13:33:47.241Z,2.83
2023-12-29T13:36:22.020Z,3.03
2023-12-29T13:38:52.991Z,3.10
2023-12-29T13:41:22.116Z,2.90
2023-12-29T13:43:51.980Z,3.07
2023-12-29T13:46:21.150Z,3.40
2023-12-29T13:48:52.253Z,3.10
2023-12-29T13:51:24.981Z,3.30
2023-12-29T13:53:59.747Z,3.10
2023-12-29T13:56:27.764Z,3.70
2023-12-29T13:58:57.160Z,3.23
2023-12-29T14:01:25.285Z,3.30
2023-12-29T14:03:57.093Z,3.50
2023-12-29T14:06:32.056Z,3.20
2023-12-29T14:09:00.155Z,3.70
2023-12-29T14:11:28.180Z,3.73
2023-12-29T14:13:57.389Z,3.70
2023-12-29T14:16:25.354Z,3.90
2023-12-29T14:18:58.321Z,3.70
2023-12-29T14:21:26.897Z,3.80
2023-12-29T14:24:01.981Z,3.83
2023-12-29T14:26:29.909Z,4.13
2023-12-29T14:29:10.161Z,4.03
2023-12-29T14:31:38.984Z,3.90
2023-12-29T14:34:07.033Z,4.30
2023-12-29T14:36:36.588Z,4.20
2023-12-29T14:39:04.959Z,4.20
2023-12-29T14:41:33.143Z,4.40
2023-12-29T14:44:01.161Z,4.33
2023-12-29T14:46:31.122Z,4.40
2023-12-29T14:48:59.689Z,3.73
2023-12-29T14:51:27.658Z,4.10
2023-12-29T14:53:55.519Z,4.20
2023-12-29T14:56:23.414Z,3.97
2023-12-29T14:58:51.337Z,4.00
2023-12-29T15:01:19.865Z,4.10
2023-12-29T15:03:48.641Z,4.30
2023-12-29T15:06:16.753Z,4.50
2023-12-29T15:08:44.681Z,4.40
2023-12-29T15:11:12.579Z,4.40
2023-12-29T15:13:40.555Z,3.90
2023-12-29T15:16:08.908Z,4.10
2023-12-29T15:18:37.048Z,4.17
2023-12-29T15:21:06.707Z,4.03
2023-12-29T15:23:34.568Z,4.60
2023-12-29T15:26:02.524Z,4.53
2023-12-29T15:28:30.997Z,5.23
2023-12-29T15:30:59.096Z,4.40
2023-12-29T15:33:27.729Z,4.93
2023-12-29T15:35:55.881Z,4.90
2023-12-29T15:38:25.213Z,4.67
2023-12-29T15:40:53.186Z,5.10
2023-12-29T15:43:21.438Z,5.70
2023-12-29T15:45:49.635Z,5.03
2023-12-29T15:48:17.779Z,5.40
2023-12-29T15:50:45.692Z,5.60
2023-12-29T15:53:13.544Z,5.90
2023-12-29T15:55:42.807Z,5.70
2023-12-29T15:58:10.822Z,6.40
2023-12-29T16:00:38.799Z,5.70
2023-12-29T16:03:06.850Z,5.40
2023-12-29T16:05:35.029Z,6.43
2023-12-29T16:08:03.406Z,6.03
2023-12-29T16:10:32.533Z,5.50
2023-12-29T16:13:02.174Z,6.20
2023-12-29T16:15:30.048Z,6.30
2023-12-29T16:17:58.043Z,5.67
2023-12-29T16:20:26.144Z,5.73
2023-12-29T16:22:54.437Z,5.87
2023-12-29T16:25:22.564Z,6.10
2023-12-29T16:27:50.774Z,5.83
2023-12-29T16:30:20.263Z,6.13
2023-12-29T16:32:48.439Z,7.00
2023-12-29T16:35:17.319Z,7.40
2023-12-29T16:37:45.231Z,8.07
2023-12-29T16:40:13.412Z,8.90
2023-12-29T16:42:43.760Z,9.10
2023-12-29T16:45:12.012Z,9.23
2023-12-29T16:47:41.392Z,9.20
2023-12-29T16:50:09.725Z,9.93
2023-12-29T16:52:37.660Z,9.23
2023-12-29T16:55:06.312Z,9.47
2023-12-29T16:57:34.311Z,9.40
2023-12-29T17:00:02.380Z,9.73
2023-12-29T17:02:30.506Z,9.50
2023-12-29T17:04:59.867Z,9.07
2023-12-29T17:07:27.824Z,9.57
2023-12-29T17:09:55.915Z,9.10
2023-12-29T17:12:23.939Z,9.33
2023-12-29T17:14:52.311Z,9.03
2023-12-29T17:17:20.201Z,10.17
2023-12-29T17:19:47.999Z,9.67
2023-12-29T17:22:19.403Z,9.37
2023-12-29T17:24:47.974Z,9.47
2023-12-29T17:27:15.960Z,9.40
2023-12-29T17:29:43.842Z,9.90
2023-12-29T17:32:11.898Z,9.90
2023-12-29T17:34:40.762Z,9.47
2023-12-29T17:37:08.794Z,8.80
2023-12-29T17:39:39.178Z,9.10
2023-12-29T17:42:12.341Z,9.87
2023-12-29T17:44:40.373Z,9.97
2023-12-29T17:47:09.830Z,9.00
2023-12-29T17:49:37.904Z,9.03
2023-12-29T17:52:07.016Z,8.93
2023-12-29T17:54:34.873Z,8.53
2023-12-29T17:57:04.489Z,9.33
2023-12-29T17:59:32.564Z,8.27
2023-12-29T18:02:00.870Z,8.00
2023-12-29T18:04:28.924Z,8.37
2023-12-29T18:07:03.733Z,8.60
2023-12-29T18:09:39.212Z,8.10
2023-12-29T18:12:09.366Z,8.07
2023-12-29T18:14:40.881Z,7.63
2023-12-29T18:17:12.188Z,8.33
2023-12-29T18:19:40.854Z,8.00
2023-12-29T18:22:08.845Z,7.93
2023-12-29T18:24:37.829Z,7.60
2023-12-29T18:27:06.034Z,7.63
2023-12-29T18:29:35.505Z,8.20
2023-12-29T18:32:18.802Z,7.57
2023-12-29T18:34:50.107Z,8.00
2023-12-29T18:37:18.202Z,8.10
2023-12-29T18:39:47.924Z,7.83
2023-12-29T18:42:16.409Z,7.47
2023-12-29T18:44:46.561Z,7.10
2023-12-29T18:47:14.348Z,7.37
2023-12-29T18:49:42.440Z,6.83
2023-12-29T18:52:10.740Z,7.10
2023-12-29T18:54:38.690Z,7.10
2023-12-29T18:57:06.670Z,6.47
2023-12-29T18:59:34.678Z,6.93
2023-12-29T19:02:05.191Z,7.00
2023-12-29T19:04:33.532Z,7.60
2023-12-29T19:07:01.726Z,6.73
2023-12-29T19:09:29.939Z,6.90
2023-12-29T19:11:57.863Z,7.13
2023-12-29T19:14:26.086Z,6.23
2023-12-29T19:16:54.785Z,7.23
2023-12-29T19:19:25.139Z,7.23
2023-12-29T19:21:53.956Z,7.20
2023-12-29T19:24:22.812Z,7.03
2023-12-29T19:26:51.904Z,7.10
2023-12-29T19:29:19.864Z,7.53
2023-12-29T19:31:47.895Z,7.43
2023-12-29T19:34:16.062Z,6.87
2023-12-29T19:36:45.328Z,7.80
2023-12-29T19:39:13.459Z,7.70
2023-12-29T19:41:41.411Z,6.77
2023-12-29T19:44:09.306Z,7.60
2023-12-29T19:46:41.434Z,7.47
2023-12-29T19:49:09.403Z,7.27
2023-12-29T19:51:37.295Z,7.73
2023-12-29T19:54:06.755Z,7.33
2023-12-29T19:56:34.818Z,7.23
2023-12-29T19:59:02.717Z,7.70
2023-12-29T20:01:38.539Z,7.40
2023-12-29T20:04:12.385Z,7.13
2023-12-29T20:06:41.291Z,7.67
2023-12-29T20:09:10.520Z,7.30
2023-12-29T20:11:40.322Z,6.77
2023-12-29T20:14:10.586Z,7.37
2023-12-29T20:16:38.597Z,6.80
2023-12-29T20:19:06.829Z,7.13
2023-12-29T20:21:34.916Z,6.90
2023-12-29T20:24:03.886Z,7.43
2023-12-29T20:26:34.280Z,7.60
2023-12-29T20:29:02.326Z,9.37
2023-12-29T20:31:30.832Z,7.77
2023-12-29T20:33:59.502Z,7.37
2023-12-29T20:36:28.115Z,6.80
2023-12-29T20:38:56.736Z,7.53
2023-12-29T20:41:25.440Z,7.20
2023-12-29T20:43:55.978Z,7.87
2023-12-29T20:46:24.437Z,7.40
2023-12-29T20:48:53.051Z,7.80
2023-12-29T20:51:21.875Z,8.10
2023-12-29T20:53:51.253Z,7.37
2023-12-29T20:56:19.565Z,7.20
2023-12-29T20:58:50.415Z,8.23
2023-12-29T21:01:22.327Z,7.47
2023-12-29T21:03:50.706Z,7.43
2023-12-29T21:06:20.284Z,7.47
2023-12-29T21:08:49.078Z,7.27
2023-12-29T21:11:20.865Z,7.70
2023-12-29T21:13:49.103Z,7.53
2023-12-29T21:16:17.583Z,7.63
2023-12-29T21:18:47.474Z,8.47
2023-12-29T21:21:15.960Z,8.17
2023-12-29T21:23:44.390Z,8.00
2023-12-29T21:26:19.452Z,7.60
2023-12-29T21:28:47.793Z,8.20
2023-12-29T21:31:16.538Z,7.53
2023-12-29T21:33:44.711Z,7.20
2023-12-29T21:36:23.033Z,7.60
2023-12-29T21:38:51.410Z,7.20
2023-12-29T21:41:19.410Z,6.87
2023-12-29T21:43:47.742Z,6.97
2023-12-29T21:46:16.046Z,7.03
2023-12-29T21:48:44.308Z,6.80
2023-12-29T21:51:12.808Z,6.90
2023-12-29T21:53:42.389Z,7.27
2023-12-29T21:56:10.658Z,7.10
2023-12-29T21:58:38.805Z,6.97
2023-12-29T22:01:21.836Z,7.37
2023-12-29T22:03:49.886Z,6.90
2023-12-29T22:06:17.678Z,6.70
2023-12-29T22:08:46.904Z,7.33
2023-12-29T22:11:14.733Z,6.53
2023-12-29T22:13:42.671Z,6.90
2023-12-29T22:16:12.533Z,6.70
2023-12-29T22:18:40.606Z,6.50
2023-12-29T22:21:08.535Z,7.00
2023-12-29T22:23:36.513Z,6.80
2023-12-29T22:26:05.883Z,7.83
2023-12-29T22:28:33.842Z,6.73
2023-12-29T22:31:01.820Z,7.07
2023-12-29T22:33:29.841Z,7.43
2023-12-29T22:35:57.915Z,8.60
2023-12-29T22:38:25.890Z,8.90
2023-12-29T22:40:53.888Z,9.60
2023-12-29T22:43:23.564Z,10.77
2023-12-29T22:45:51.667Z,11.17
2023-12-29T22:48:19.632Z,11.13
2023-12-29T22:50:47.571Z,12.03
2023-12-29T22:53:15.716Z,12.27
2023-12-29T22:55:43.644Z,12.33
2023-12-29T22:58:11.605Z,12.77
2023-12-29T23:00:40.905Z,12.60
2023-12-29T23:03:09.180Z,12.40
2023-12-29T23:05:37.254Z,13.00
2023-12-29T23:08:05.460Z,12.50
2023-12-29T23:10:33.461Z,13.37
2023-12-29T23:13:03.080Z,13.07
2023-12-29T23:15:31.486Z,13.60
2023-12-29T23:18:00.786Z,12.30
2023-12-29T23:20:28.627Z,12.57
2023-12-29T23:22:56.552Z,12.77
2023-12-29T23:25:24.529Z,12.90
2023-12-29T23:27:52.433Z,13.57
2023-12-29T23:30:20.933Z,12.77
2023-12-29T23:32:49.029Z,12.00
2023-12-29T23:35:23.915Z,12.73
2023-12-29T23:37:53.323Z,12.23
2023-12-29T23:40:21.546Z,12.40
2023-12-29T23:42:49.505Z,11.37
2023-12-29T23:45:17.745Z,11.33
2023-12-29T23:47:45.970Z,10.73
2023-12-29T23:50:14.020Z,11.10
2023-12-29T23:52:43.357Z,10.83
2023-12-29T23:55:11.315Z,10.07
2023-12-29T23:57:39.268Z,10.40
